sensor_id;sensor_type;location;lat;lon;timestamp;pressure;altitude;pressure_sealevel;temperature;humidity
83843;BME280;73869;52.336;21.182;2024-03-17T00:00:46;100541.72;;;6.47;86.28
83843;BME280;73869;52.336;21.182;2024-03-17T00:03:13;100556.06;;;6.48;86.81
83843;BME280;73869;52.336;21.182;2024-03-17T00:05:40;100549.75;;;6.41;84.04
83843;BME280;73869;52.336;21.182;2024-03-17T00:08:07;100548.16;;;6.46;84.66
83843;BME280;73869;52.336;21.182;2024-03-17T00:10:34;100552.91;;;6.44;82.87
83843;BME280;73869;52.336;21.182;2024-03-17T00:13:01;100563.03;;;6.42;81.36
83843;BME280;73869;52.336;21.182;2024-03-17T00:15:26;100563.50;;;6.46;82.11
83843;BME280;73869;52.336;21.182;2024-03-17T00:17:53;100535.44;;;6.26;82.85
83843;BME280;73869;52.336;21.182;2024-03-17T00:20:19;100552.75;;;6.31;82.03
83843;BME280;73869;52.336;21.182;2024-03-17T00:22:49;100562.13;;;6.35;81.48
83843;BME280;73869;52.336;21.182;2024-03-17T00:25:16;100575.22;;;6.38;81.32
83843;BME280;73869;52.336;21.182;2024-03-17T00:27:43;100566.97;;;6.40;80.98
83843;BME280;73869;52.336;21.182;2024-03-17T00:30:11;100561.13;;;6.36;81.47
83843;BME280;73869;52.336;21.182;2024-03-17T00:32:38;100574.31;;;6.31;82.16
83843;BME280;73869;52.336;21.182;2024-03-17T00:35:05;100573.47;;;6.31;78.06
83843;BME280;73869;52.336;21.182;2024-03-17T00:37:48;100572.00;;;6.28;79.45
83843;BME280;73869;52.336;21.182;2024-03-17T00:40:15;100569.38;;;6.20;75.88
83843;BME280;73869;52.336;21.182;2024-03-17T00:42:42;100580.34;;;6.19;75.27
83843;BME280;73869;52.336;21.182;2024-03-17T00:45:10;100572.66;;;6.16;76.47
83843;BME280;73869;52.336;21.182;2024-03-17T00:47:37;100571.19;;;6.13;75.79
83843;BME280;73869;52.336;21.182;2024-03-17T00:50:03;100576.94;;;6.10;72.94
83843;BME280;73869;52.336;21.182;2024-03-17T00:52:30;100566.78;;;6.12;74.39
83843;BME280;73869;52.336;21.182;2024-03-17T00:54:57;100576.38;;;6.15;73.23
83843;BME280;73869;52.336;21.182;2024-03-17T00:57:24;100577.75;;;6.11;71.84
83843;BME280;73869;52.336;21.182;2024-03-17T00:59:49;100577.69;;;6.04;74.38
83843;BME280;73869;52.336;21.182;2024-03-17T01:02:18;100572.28;;;6.04;73.41
83843;BME280;73869;52.336;21.182;2024-03-17T01:04:44;100584.84;;;5.97;73.97
83843;BME280;73869;52.336;21.182;2024-03-17T01:07:11;100592.47;;;5.94;74.38
83843;BME280;73869;52.336;21.182;2024-03-17T01:09:37;100593.84;;;6.04;73.17
83843;BME280;73869;52.336;21.182;2024-03-17T01:12:05;100603.06;;;5.95;73.66
83843;BME280;73869;52.336;21.182;2024-03-17T01:14:31;100596.44;;;5.98;73.46
83843;BME280;73869;52.336;21.182;2024-03-17T01:16:59;100587.75;;;5.96;73.15
83843;BME280;73869;52.336;21.182;2024-03-17T01:19:25;100590.69;;;5.86;73.21
83843;BME280;73869;52.336;21.182;2024-03-17T01:21:52;100591.91;;;5.84;71.57
83843;BME280;73869;52.336;21.182;2024-03-17T01:24:18;100594.22;;;5.87;73.09
83843;BME280;73869;52.336;21.182;2024-03-17T01:26:44;100600.50;;;5.79;72.90
83843;BME280;73869;52.336;21.182;2024-03-17T01:29:12;100604.59;;;5.75;72.70
83843;BME280;73869;52.336;21.182;2024-03-17T01:31:39;100596.75;;;5.66;71.46
83843;BME280;73869;52.336;21.182;2024-03-17T01:34:04;100590.06;;;5.62;72.93
83843;BME280;73869;52.336;21.182;2024-03-17T01:36:31;100607.81;;;5.56;69.77
83843;BME280;73869;52.336;21.182;2024-03-17T01:38:57;100611.38;;;5.48;72.14
83843;BME280;73869;52.336;21.182;2024-03-17T01:41:24;100608.78;;;5.40;73.37
83843;BME280;73869;52.336;21.182;2024-03-17T01:43:49;100610.16;;;5.36;72.27
83843;BME280;73869;52.336;21.182;2024-03-17T01:46:17;100612.63;;;5.23;72.85
83843;BME280;73869;52.336;21.182;2024-03-17T01:48:44;100601.94;;;5.15;73.19
83843;BME280;73869;52.336;21.182;2024-03-17T01:51:13;100612.16;;;5.20;73.63
83843;BME280;73869;52.336;21.182;2024-03-17T01:53:41;100618.25;;;5.14;72.66
83843;BME280;73869;52.336;21.182;2024-03-17T01:56:10;100616.44;;;5.06;72.61
83843;BME280;73869;52.336;21.182;2024-03-17T01:58:36;100624.16;;;5.09;72.29
83843;BME280;73869;52.336;21.182;2024-03-17T02:01:03;100627.44;;;4.97;75.09
83843;BME280;73869;52.336;21.182;2024-03-17T02:03:31;100624.63;;;4.90;75.25
83843;BME280;73869;52.336;21.182;2024-03-17T02:05:58;100611.41;;;4.81;74.11
83843;BME280;73869;52.336;21.182;2024-03-17T02:08:23;100631.97;;;4.74;76.76
83843;BME280;73869;52.336;21.182;2024-03-17T02:10:52;100636.63;;;4.80;75.65
83843;BME280;73869;52.336;21.182;2024-03-17T02:13:19;100616.31;;;4.77;75.68
83843;BME280;73869;52.336;21.182;2024-03-17T02:15:46;100618.88;;;4.71;74.89
83843;BME280;73869;52.336;21.182;2024-03-17T02:18:12;100622.41;;;4.63;75.20
83843;BME280;73869;52.336;21.182;2024-03-17T02:20:40;100630.34;;;4.57;77.89
83843;BME280;73869;52.336;21.182;2024-03-17T02:23:25;100634.06;;;4.56;76.58
83843;BME280;73869;52.336;21.182;2024-03-17T02:25:52;100627.03;;;4.55;76.70
83843;BME280;73869;52.336;21.182;2024-03-17T02:28:18;100631.91;;;4.51;77.57
83843;BME280;73869;52.336;21.182;2024-03-17T02:30:44;100631.59;;;4.46;79.06
83843;BME280;73869;52.336;21.182;2024-03-17T02:33:10;100645.03;;;4.46;78.17
83843;BME280;73869;52.336;21.182;2024-03-17T02:35:36;100628.94;;;4.38;78.19
83843;BME280;73869;52.336;21.182;2024-03-17T02:38:03;100633.44;;;4.46;77.43
83843;BME280;73869;52.336;21.182;2024-03-17T02:40:30;100633.78;;;4.43;77.81
83843;BME280;73869;52.336;21.182;2024-03-17T02:42:57;100621.59;;;4.24;79.21
83843;BME280;73869;52.336;21.182;2024-03-17T02:45:23;100635.16;;;4.31;80.30
83843;BME280;73869;52.336;21.182;2024-03-17T02:47:49;100634.72;;;4.27;79.05
83843;BME280;73869;52.336;21.182;2024-03-17T02:50:16;100641.91;;;4.35;78.07
83843;BME280;73869;52.336;21.182;2024-03-17T02:52:43;100646.09;;;4.29;80.19
83843;BME280;73869;52.336;21.182;2024-03-17T02:55:10;100632.38;;;4.16;79.82
83843;BME280;73869;52.336;21.182;2024-03-17T02:57:38;100641.63;;;4.13;80.11
83843;BME280;73869;52.336;21.182;2024-03-17T03:00:07;100633.94;;;4.02;78.85
83843;BME280;73869;52.336;21.182;2024-03-17T03:02:38;100651.06;;;4.01;80.16
83843;BME280;73869;52.336;21.182;2024-03-17T03:05:05;100649.03;;;4.03;78.79
83843;BME280;73869;52.336;21.182;2024-03-17T03:07:32;100658.28;;;3.93;79.29
83843;BME280;73869;52.336;21.182;2024-03-17T03:09:58;100651.59;;;3.89;78.41
83843;BME280;73869;52.336;21.182;2024-03-17T03:12:25;100653.94;;;3.92;78.94
83843;BME280;73869;52.336;21.182;2024-03-17T03:14:53;100651.78;;;3.87;78.35
83843;BME280;73869;52.336;21.182;2024-03-17T03:17:20;100637.00;;;3.75;78.44
83843;BME280;73869;52.336;21.182;2024-03-17T03:19:46;100651.78;;;3.79;78.43
83843;BME280;73869;52.336;21.182;2024-03-17T03:22:13;100653.13;;;3.75;79.21
83843;BME280;73869;52.336;21.182;2024-03-17T03:24:40;100652.44;;;3.65;79.75
83843;BME280;73869;52.336;21.182;2024-03-17T03:27:07;100652.63;;;3.48;79.88
83843;BME280;73869;52.336;21.182;2024-03-17T03:29:34;100652.81;;;3.46;80.15
83843;BME280;73869;52.336;21.182;2024-03-17T03:32:02;100657.16;;;3.55;79.05
83843;BME280;73869;52.336;21.182;2024-03-17T03:34:28;100656.50;;;3.61;78.84
83843;BME280;73869;52.336;21.182;2024-03-17T03:36:55;100657.66;;;3.51;78.50
83843;BME280;73869;52.336;21.182;2024-03-17T03:39:24;100643.72;;;3.39;78.03
83843;BME280;73869;52.336;21.182;2024-03-17T03:41:56;100659.38;;;3.52;78.47
83843;BME280;73869;52.336;21.182;2024-03-17T03:44:22;100645.75;;;3.37;79.11
83843;BME280;73869;52.336;21.182;2024-03-17T03:46:49;100648.44;;;3.37;78.98
83843;BME280;73869;52.336;21.182;2024-03-17T03:49:19;100644.75;;;3.38;78.67
83843;BME280;73869;52.336;21.182;2024-03-17T03:51:46;100634.03;;;3.22;77.95
83843;BME280;73869;52.336;21.182;2024-03-17T03:54:13;100646.75;;;3.20;79.95
83843;BME280;73869;52.336;21.182;2024-03-17T03:56:39;100639.69;;;3.19;79.54
83843;BME280;73869;52.336;21.182;2024-03-17T03:59:06;100641.88;;;3.08;79.27
83843;BME280;73869;52.336;21.182;2024-03-17T04:01:33;100641.38;;;3.04;79.68
83843;BME280;73869;52.336;21.182;2024-03-17T04:03:59;100645.53;;;2.99;81.38
83843;BME280;73869;52.336;21.182;2024-03-17T04:06:27;100641.72;;;3.01;79.42
83843;BME280;73869;52.336;21.182;2024-03-17T04:08:54;100647.44;;;3.14;78.29
83843;BME280;73869;52.336;21.182;2024-03-17T04:11:21;100646.22;;;3.01;79.72
83843;BME280;73869;52.336;21.182;2024-03-17T04:13:47;100635.50;;;2.93;79.44
83843;BME280;73869;52.336;21.182;2024-03-17T04:16:14;100655.59;;;2.89;80.49
83843;BME280;73869;52.336;21.182;2024-03-17T04:18:41;100656.94;;;2.85;80.72
83843;BME280;73869;52.336;21.182;2024-03-17T04:21:07;100657.59;;;2.87;81.11
83843;BME280;73869;52.336;21.182;2024-03-17T04:23:35;100661.63;;;2.91;81.20
83843;BME280;73869;52.336;21.182;2024-03-17T04:26:04;100664.00;;;3.02;80.98
83843;BME280;73869;52.336;21.182;2024-03-17T04:28:32;100663.50;;;3.06;81.00
83843;BME280;73869;52.336;21.182;2024-03-17T04:31:03;100660.63;;;3.00;81.53
83843;BME280;73869;52.336;21.182;2024-03-17T04:33:31;100655.13;;;3.09;80.85
83843;BME280;73869;52.336;21.182;2024-03-17T04:35:59;100661.31;;;3.02;82.44
83843;BME280;73869;52.336;21.182;2024-03-17T04:38:25;100664.84;;;3.10;81.45
83843;BME280;73869;52.336;21.182;2024-03-17T04:40:54;100656.81;;;3.10;81.90
83843;BME280;73869;52.336;21.182;2024-03-17T04:43:29;100664.69;;;3.12;82.59
83843;BME280;73869;52.336;21.182;2024-03-17T04:46:01;100660.00;;;3.06;83.01
83843;BME280;73869;52.336;21.182;2024-03-17T04:48:29;100662.66;;;3.06;83.17
83843;BME280;73869;52.336;21.182;2024-03-17T04:50:56;100662.00;;;3.20;82.75
83843;BME280;73869;52.336;21.182;2024-03-17T04:53:23;100662.19;;;3.26;83.06
83843;BME280;73869;52.336;21.182;2024-03-17T04:55:59;100650.28;;;3.21;82.64
83843;BME280;73869;52.336;21.182;2024-03-17T04:58:26;100655.16;;;3.25;82.31
83843;BME280;73869;52.336;21.182;2024-03-17T05:00:52;100653.78;;;3.21;82.91
83843;BME280;73869;52.336;21.182;2024-03-17T05:03:19;100657.84;;;3.17;83.58
83843;BME280;73869;52.336;21.182;2024-03-17T05:05:46;100654.47;;;3.23;83.39
83843;BME280;73869;52.336;21.182;2024-03-17T05:08:12;100656.13;;;3.16;83.45
83843;BME280;73869;52.336;21.182;2024-03-17T05:10:39;100652.97;;;3.21;82.83
83843;BME280;73869;52.336;21.182;2024-03-17T05:13:07;100655.16;;;3.41;81.60
83843;BME280;73869;52.336;21.182;2024-03-17T05:15:36;100644.41;;;3.33;82.27
83843;BME280;73869;52.336;21.182;2024-03-17T05:18:03;100659.50;;;3.50;81.45
83843;BME280;73869;52.336;21.182;2024-03-17T05:20:30;100658.34;;;3.45;82.48
83843;BME280;73869;52.336;21.182;2024-03-17T05:22:57;100660.00;;;3.46;82.04
83843;BME280;73869;52.336;21.182;2024-03-17T05:25:24;100664.56;;;3.53;80.43
83843;BME280;73869;52.336;21.182;2024-03-17T05:27:51;100665.88;;;3.49;81.36
83843;BME280;73869;52.336;21.182;2024-03-17T05:30:19;100659.03;;;3.47;82.44
83843;BME280;73869;52.336;21.182;2024-03-17T05:32:45;100660.19;;;3.52;80.41
83843;BME280;73869;52.336;21.182;2024-03-17T05:35:12;100659.66;;;3.41;83.03
83843;BME280;73869;52.336;21.182;2024-03-17T05:37:39;100662.19;;;3.50;83.02
83843;BME280;73869;52.336;21.182;2024-03-17T05:40:07;100662.34;;;3.49;83.05
83843;BME280;73869;52.336;21.182;2024-03-17T05:42:41;100657.66;;;3.51;82.24
83843;BME280;73869;52.336;21.182;2024-03-17T05:45:09;100660.19;;;3.76;81.28
83843;BME280;73869;52.336;21.182;2024-03-17T05:47:37;100655.28;;;3.80;81.66
83843;BME280;73869;52.336;21.182;2024-03-17T05:50:07;100661.69;;;3.79;81.05
83843;BME280;73869;52.336;21.182;2024-03-17T05:52:34;100657.50;;;3.84;81.16
83843;BME280;73869;52.336;21.182;2024-03-17T05:55:01;100656.78;;;3.98;82.16
83843;BME280;73869;52.336;21.182;2024-03-17T05:57:28;100654.06;;;4.06;80.70
83843;BME280;73869;52.336;21.182;2024-03-17T05:59:55;100663.31;;;4.12;81.56
83843;BME280;73869;52.336;21.182;2024-03-17T06:02:22;100662.91;;;4.31;80.00
83843;BME280;73869;52.336;21.182;2024-03-17T06:04:50;100658.69;;;4.37;81.18
83843;BME280;73869;52.336;21.182;2024-03-17T06:07:17;100663.34;;;4.51;80.00
83843;BME280;73869;52.336;21.182;2024-03-17T06:09:44;100665.84;;;4.52;80.63
83843;BME280;73869;52.336;21.182;2024-03-17T06:12:12;100665.31;;;4.57;80.37
83843;BME280;73869;52.336;21.182;2024-03-17T06:14:39;100659.63;;;4.60;80.64
83843;BME280;73869;52.336;21.182;2024-03-17T06:17:06;100656.75;;;4.61;80.24
83843;BME280;73869;52.336;21.182;2024-03-17T06:19:33;100669.50;;;4.67;80.73
83843;BME280;73869;52.336;21.182;2024-03-17T06:22:01;100671.28;;;4.75;79.55
83843;BME280;73869;52.336;21.182;2024-03-17T06:24:28;100673.66;;;4.78;78.16
83843;BME280;73869;52.336;21.182;2024-03-17T06:26:55;100674.97;;;4.82;80.16
83843;BME280;73869;52.336;21.182;2024-03-17T06:29:21;100677.34;;;4.77;78.57
83843;BME280;73869;52.336;21.182;2024-03-17T06:31:48;100677.97;;;4.87;78.80
83843;BME280;73869;52.336;21.182;2024-03-17T06:34:15;100659.34;;;4.77;77.28
83843;BME280;73869;52.336;21.182;2024-03-17T06:36:42;100673.13;;;4.82;77.93
83843;BME280;73869;52.336;21.182;2024-03-17T06:39:10;100670.38;;;4.90;78.24
83843;BME280;73869;52.336;21.182;2024-03-17T06:41:41;100681.41;;;5.03;77.22
83843;BME280;73869;52.336;21.182;2024-03-17T06:44:07;100672.44;;;5.11;76.23
83843;BME280;73869;52.336;21.182;2024-03-17T06:46:35;100666.66;;;5.22;76.91
83843;BME280;73869;52.336;21.182;2024-03-17T06:49:01;100667.84;;;5.19;75.93
83843;BME280;73869;52.336;21.182;2024-03-17T06:51:28;100669.47;;;5.28;75.20
83843;BME280;73869;52.336;21.182;2024-03-17T06:53:55;100667.31;;;5.24;75.95
83843;BME280;73869;52.336;21.182;2024-03-17T06:56:23;100658.59;;;5.22;74.13
83843;BME280;73869;52.336;21.182;2024-03-17T06:58:50;100667.31;;;5.24;72.25
83843;BME280;73869;52.336;21.182;2024-03-17T07:01:17;100664.78;;;5.22;74.25
83843;BME280;73869;52.336;21.182;2024-03-17T07:03:44;100682.41;;;5.33;73.97
83843;BME280;73869;52.336;21.182;2024-03-17T07:06:11;100675.81;;;5.35;72.65
83843;BME280;73869;52.336;21.182;2024-03-17T07:08:38;100669.25;;;5.38;73.20
83843;BME280;73869;52.336;21.182;2024-03-17T07:11:06;100666.44;;;5.31;73.25
83843;BME280;73869;52.336;21.182;2024-03-17T07:13:35;100682.53;;;5.39;74.41
83843;BME280;73869;52.336;21.182;2024-03-17T07:16:03;100689.94;;;5.37;73.27
83843;BME280;73869;52.336;21.182;2024-03-17T07:18:32;100678.97;;;5.39;72.30
83843;BME280;73869;52.336;21.182;2024-03-17T07:21:01;100685.22;;;5.39;72.07
83843;BME280;73869;52.336;21.182;2024-03-17T07:23:29;100690.47;;;5.56;72.78
83843;BME280;73869;52.336;21.182;2024-03-17T07:25:57;100694.31;;;5.61;73.06
83843;BME280;73869;52.336;21.182;2024-03-17T07:28:25;100691.81;;;5.60;72.76
83843;BME280;73869;52.336;21.182;2024-03-17T07:30:54;100696.41;;;5.51;73.37
83843;BME280;73869;52.336;21.182;2024-03-17T07:33:21;100703.88;;;5.64;71.90
83843;BME280;73869;52.336;21.182;2024-03-17T07:35:49;100696.81;;;5.63;72.75
83843;BME280;73869;52.336;21.182;2024-03-17T07:38:17;100680.63;;;5.48;71.10
83843;BME280;73869;52.336;21.182;2024-03-17T07:40:45;100703.88;;;5.64;72.73
83843;BME280;73869;52.336;21.182;2024-03-17T07:43:13;100704.28;;;5.75;73.71
83843;BME280;73869;52.336;21.182;2024-03-17T07:45:40;100686.88;;;5.63;72.14
83843;BME280;73869;52.336;21.182;2024-03-17T07:48:12;100699.38;;;5.79;71.44
83843;BME280;73869;52.336;21.182;2024-03-17T07:50:39;100695.66;;;5.80;71.85
83843;BME280;73869;52.336;21.182;2024-03-17T07:53:06;100704.38;;;5.90;70.95
83843;BME280;73869;52.336;21.182;2024-03-17T07:55:32;100691.00;;;5.74;72.01
83843;BME280;73869;52.336;21.182;2024-03-17T07:57:59;100664.69;;;5.61;71.74
83843;BME280;73869;52.336;21.182;2024-03-17T08:00:26;100707.06;;;5.90;72.10
83843;BME280;73869;52.336;21.182;2024-03-17T08:02:53;100696.16;;;5.83;73.03
83843;BME280;73869;52.336;21.182;2024-03-17T08:05:21;100685.19;;;5.85;72.91
83843;BME280;73869;52.336;21.182;2024-03-17T08:07:48;100702.22;;;5.85;72.73
83843;BME280;73869;52.336;21.182;2024-03-17T08:10:15;100711.09;;;5.94;72.11
83843;BME280;73869;52.336;21.182;2024-03-17T08:12:43;100694.25;;;5.92;73.02
83843;BME280;73869;52.336;21.182;2024-03-17T08:15:09;100696.38;;;5.96;72.87
83843;BME280;73869;52.336;21.182;2024-03-17T08:17:36;100688.84;;;5.92;71.28
83843;BME280;73869;52.336;21.182;2024-03-17T08:20:03;100683.84;;;5.89;74.58
83843;BME280;73869;52.336;21.182;2024-03-17T08:22:32;100680.97;;;6.05;73.04
83843;BME280;73869;52.336;21.182;2024-03-17T08:24:59;100681.81;;;6.05;73.69
83843;BME280;73869;52.336;21.182;2024-03-17T08:27:26;100694.56;;;6.11;72.39
83843;BME280;73869;52.336;21.182;2024-03-17T08:29:52;100696.88;;;6.00;72.21
83843;BME280;73869;52.336;21.182;2024-03-17T08:32:20;100694.34;;;5.98;70.91
83843;BME280;73869;52.336;21.182;2024-03-17T08:34:47;100692.06;;;6.10;71.87
83843;BME280;73869;52.336;21.182;2024-03-17T08:37:14;100691.56;;;6.06;72.82
83843;BME280;73869;52.336;21.182;2024-03-17T08:39:42;100694.00;;;6.16;70.88
83843;BME280;73869;52.336;21.182;2024-03-17T08:42:09;100686.66;;;6.10;71.36
83843;BME280;73869;52.336;21.182;2024-03-17T08:44:36;100680.41;;;6.09;70.30
83843;BME280;73869;52.336;21.182;2024-03-17T08:47:03;100686.19;;;6.06;70.61
83843;BME280;73869;52.336;21.182;2024-03-17T08:49:29;100697.16;;;6.05;71.50
83843;BME280;73869;52.336;21.182;2024-03-17T08:51:56;100701.50;;;6.06;71.49
83843;BME280;73869;52.336;21.182;2024-03-17T08:54:23;100703.50;;;6.12;69.38
83843;BME280;73869;52.336;21.182;2024-03-17T08:56:51;100705.63;;;6.16;68.90
83843;BME280;73869;52.336;21.182;2024-03-17T08:59:17;100682.94;;;6.11;70.40
83843;BME280;73869;52.336;21.182;2024-03-17T09:01:44;100687.22;;;6.20;70.43
83843;BME280;73869;52.336;21.182;2024-03-17T09:04:11;100688.00;;;6.28;69.97
83843;BME280;73869;52.336;21.182;2024-03-17T09:06:38;100685.53;;;6.19;70.27
83843;BME280;73869;52.336;21.182;2024-03-17T09:09:05;100688.97;;;6.13;71.78
83843;BME280;73869;52.336;21.182;2024-03-17T09:11:32;100693.44;;;6.06;71.12
83843;BME280;73869;52.336;21.182;2024-03-17T09:14:00;100703.28;;;5.99;71.54
83843;BME280;73869;52.336;21.182;2024-03-17T09:16:27;100700.78;;;5.97;70.54
83843;BME280;73869;52.336;21.182;2024-03-17T09:18:55;100699.25;;;5.95;69.94
83843;BME280;73869;52.336;21.182;2024-03-17T09:21:22;100716.47;;;5.94;70.03
83843;BME280;73869;52.336;21.182;2024-03-17T09:23:49;100699.72;;;5.84;70.77
83843;BME280;73869;52.336;21.182;2024-03-17T09:26:16;100696.50;;;5.80;70.55
83843;BME280;73869;52.336;21.182;2024-03-17T09:28:43;100697.72;;;5.78;68.56
83843;BME280;73869;52.336;21.182;2024-03-17T09:31:11;100696.94;;;5.69;68.39
83843;BME280;73869;52.336;21.182;2024-03-17T09:33:38;100697.94;;;5.68;68.77
83843;BME280;73869;52.336;21.182;2024-03-17T09:36:06;100695.88;;;5.56;66.86
83843;BME280;73869;52.336;21.182;2024-03-17T09:38:33;100700.94;;;5.50;68.14
83843;BME280;73869;52.336;21.182;2024-03-17T09:41:01;100698.91;;;5.53;67.46
83843;BME280;73869;52.336;21.182;2024-03-17T09:43:28;100705.78;;;5.55;67.80
83843;BME280;73869;52.336;21.182;2024-03-17T09:45:56;100702.16;;;5.71;69.30
83843;BME280;73869;52.336;21.182;2024-03-17T09:55:52;100705.34;;;6.11;67.00
83843;BME280;73869;52.336;21.182;2024-03-17T09:58:24;100695.22;;;6.13;69.34
83843;BME280;73869;52.336;21.182;2024-03-17T10:00:54;100711.03;;;6.16;70.87
83843;BME280;73869;52.336;21.182;2024-03-17T10:03:40;100709.00;;;6.18;68.68
83843;BME280;73869;52.336;21.182;2024-03-17T10:06:08;100709.19;;;6.17;68.51
83843;BME280;73869;52.336;21.182;2024-03-17T10:08:41;100716.88;;;6.05;70.05
83843;BME280;73869;52.336;21.182;2024-03-17T10:11:09;100694.81;;;5.87;69.30
83843;BME280;73869;52.336;21.182;2024-03-17T10:13:36;100715.16;;;5.90;70.62
83843;BME280;73869;52.336;21.182;2024-03-17T10:16:03;100711.19;;;5.78;69.93
83843;BME280;73869;52.336;21.182;2024-03-17T10:18:30;100714.53;;;5.80;70.68
83843;BME280;73869;52.336;21.182;2024-03-17T10:20:57;100715.91;;;5.76;70.78
83843;BME280;73869;52.336;21.182;2024-03-17T10:23:25;100706.03;;;5.68;71.37
83843;BME280;73869;52.336;21.182;2024-03-17T10:25:53;100715.19;;;5.82;71.43
83843;BME280;73869;52.336;21.182;2024-03-17T10:28:21;100711.66;;;6.04;71.23
83843;BME280;73869;52.336;21.182;2024-03-17T10:30:57;100706.09;;;6.05;71.31
83843;BME280;73869;52.336;21.182;2024-03-17T10:33:25;100704.09;;;5.99;70.00
83843;BME280;73869;52.336;21.182;2024-03-17T10:35:58;100710.91;;;5.95;69.59
83843;BME280;73869;52.336;21.182;2024-03-17T10:38:51;100702.63;;;5.97;70.90
83843;BME280;73869;52.336;21.182;2024-03-17T10:42:00;100687.09;;;5.76;71.33
83843;BME280;73869;52.336;21.182;2024-03-17T10:46:02;100680.25;;;5.51;71.73
83843;BME280;73869;52.336;21.182;2024-03-17T10:48:31;100709.09;;;5.65;71.19
83843;BME280;73869;52.336;21.182;2024-03-17T10:50:59;100721.19;;;5.69;71.00
83843;BME280;73869;52.336;21.182;2024-03-17T10:53:26;100721.00;;;5.71;71.06
83843;BME280;73869;52.336;21.182;2024-03-17T10:56:01;100719.88;;;5.65;71.14
83843;BME280;73869;52.336;21.182;2024-03-17T10:58:34;100719.38;;;5.62;70.87
83843;BME280;73869;52.336;21.182;2024-03-17T11:01:03;100721.03;;;5.48;71.33
83843;BME280;73869;52.336;21.182;2024-03-17T11:03:34;100726.03;;;5.51;73.10
83843;BME280;73869;52.336;21.182;2024-03-17T11:06:02;100720.53;;;5.44;74.29
83843;BME280;73869;52.336;21.182;2024-03-17T11:08:32;100718.31;;;5.48;73.32
83843;BME280;73869;52.336;21.182;2024-03-17T11:10:59;100722.63;;;5.57;73.49
83843;BME280;73869;52.336;21.182;2024-03-17T11:13:27;100716.81;;;5.68;73.96
83843;BME280;73869;52.336;21.182;2024-03-17T11:15:54;100724.44;;;5.87;73.15
83843;BME280;73869;52.336;21.182;2024-03-17T11:18:37;100721.31;;;5.98;73.91
83843;BME280;73869;52.336;21.182;2024-03-17T11:21:18;100716.38;;;5.87;71.68
83843;BME280;73869;52.336;21.182;2024-03-17T11:23:58;100718.97;;;5.95;73.06
83843;BME280;73869;52.336;21.182;2024-03-17T11:26:29;100721.31;;;5.98;72.84
83843;BME280;73869;52.336;21.182;2024-03-17T11:28:57;100703.38;;;5.91;72.80
83843;BME280;73869;52.336;21.182;2024-03-17T11:31:37;100722.03;;;5.92;71.79
83843;BME280;73869;52.336;21.182;2024-03-17T11:34:26;100715.91;;;5.76;71.15
83843;BME280;73869;52.336;21.182;2024-03-17T11:36:53;100726.28;;;5.64;72.95
83843;BME280;73869;52.336;21.182;2024-03-17T11:39:20;100723.16;;;5.53;73.57
83843;BME280;73869;52.336;21.182;2024-03-17T11:41:49;100732.22;;;5.60;75.03
83843;BME280;73869;52.336;21.182;2024-03-17T11:44:24;100714.84;;;5.39;77.88
83843;BME280;73869;52.336;21.182;2024-03-17T11:46:51;100724.03;;;5.22;82.73
83843;BME280;73869;52.336;21.182;2024-03-17T11:49:21;100732.09;;;4.92;84.97
83843;BME280;73869;52.336;21.182;2024-03-17T11:51:47;100743.00;;;4.98;87.44
83843;BME280;73869;52.336;21.182;2024-03-17T11:54:15;100719.25;;;4.71;89.08
83843;BME280;73869;52.336;21.182;2024-03-17T11:56:45;100745.06;;;4.88;90.42
83843;BME280;73869;52.336;21.182;2024-03-17T11:59:12;100739.69;;;4.88;89.08
83843;BME280;73869;52.336;21.182;2024-03-17T12:01:39;100738.47;;;4.99;89.94
83843;BME280;73869;52.336;21.182;2024-03-17T12:04:06;100738.03;;;5.18;89.96
83843;BME280;73869;52.336;21.182;2024-03-17T12:06:34;100716.13;;;5.21;90.23
83843;BME280;73869;52.336;21.182;2024-03-17T12:09:19;100712.63;;;5.43;88.29
83843;BME280;73869;52.336;21.182;2024-03-17T12:11:46;100728.19;;;5.56;87.16
83843;BME280;73869;52.336;21.182;2024-03-17T12:14:16;100732.78;;;5.70;87.36
83843;BME280;73869;52.336;21.182;2024-03-17T12:16:51;100724.63;;;5.86;86.97
83843;BME280;73869;52.336;21.182;2024-03-17T12:19:19;100722.56;;;5.88;83.60
83843;BME280;73869;52.336;21.182;2024-03-17T12:21:48;100723.38;;;6.11;83.25
83843;BME280;73869;52.336;21.182;2024-03-17T12:24:17;100718.25;;;6.01;83.42
83843;BME280;73869;52.336;21.182;2024-03-17T12:27:09;100698.66;;;5.62;80.82
83843;BME280;73869;52.336;21.182;2024-03-17T12:38:41;100708.97;;;6.04;78.19
83843;BME280;73869;52.336;21.182;2024-03-17T12:41:16;100704.41;;;6.04;77.14
83843;BME280;73869;52.336;21.182;2024-03-17T12:43:48;100696.16;;;5.83;77.59
83843;BME280;73869;52.336;21.182;2024-03-17T12:46:14;100708.31;;;5.79;74.81
83843;BME280;73869;52.336;21.182;2024-03-17T12:48:40;100704.84;;;5.93;73.47
83843;BME280;73869;52.336;21.182;2024-03-17T12:51:13;100701.78;;;5.96;72.20
83843;BME280;73869;52.336;21.182;2024-03-17T12:53:40;100692.41;;;5.92;73.69
83843;BME280;73869;52.336;21.182;2024-03-17T12:56:07;100695.72;;;5.94;73.86
83843;BME280;73869;52.336;21.182;2024-03-17T12:58:51;100704.19;;;5.91;73.45
83843;BME280;73869;52.336;21.182;2024-03-17T13:01:35;100698.97;;;5.90;72.33
83843;BME280;73869;52.336;21.182;2024-03-17T13:04:05;100700.38;;;5.86;75.29
83843;BME280;73869;52.336;21.182;2024-03-17T13:06:33;100706.06;;;5.91;73.74
83843;BME280;73869;52.336;21.182;2024-03-17T13:09:01;100717.59;;;5.99;74.01
83843;BME280;73869;52.336;21.182;2024-03-17T13:11:28;100708.59;;;6.07;73.38
83843;BME280;73869;52.336;21.182;2024-03-17T13:13:55;100710.91;;;5.95;75.55